Flight Track Log - Related Links

Times and Time Zones

All times are in EDT time to prevent confusion due to time zone crossing. See the N315CJ flight status page for this flight to view local times or setup timezone preferences in your user account.

Time Position Orientation Groundspeed Altitude Reporting Facility
EDT Latitude Longitude Course Direction KTS MPH feet Rate Location/Type
Thu 11:00:03 AM 38.9243 -77.4360 179° South 139 160 1,100  Level FlightAware ADS-B (KDAA)
Thu 11:00:22 AM 38.9121 -77.4359 178° South 169 194 1,600 1,941 Climbing FlightAware ADS-B (KDAA)
Thu 11:00:37 AM 38.8971 -77.4352 178° South 184 212 2,200 2,600 Climbing FlightAware ADS-B (KDAA)
Thu 11:00:52 AM 38.8844 -77.4345 177° South 193 222 2,900 2,710 Climbing FlightAware ADS-B (KDAA)
Thu 11:01:08 AM 38.8702 -77.4336 177° South 204 235 3,600 2,710 Climbing FlightAware ADS-B (KDAA)
Thu 11:01:23 AM 38.8554 -77.4327 177° South 215 247 4,300 3,158 Climbing FlightAware ADS-B (KDAA)
Thu 11:01:27 AM 38.8508 -77.4328 184° South 218 251 4,600 3,000 Climbing FlightAware ADS-B (KDAA)
Thu 11:01:33 AM 38.8456 -77.4336 190° South 222 255 4,800 3,000 Climbing FlightAware ADS-B (KDAA)
Thu 11:01:47 AM 38.8299 -77.4380 194° South 236 272 5,600 3,310 Climbing FlightAware ADS-B (KDAA)
Thu 11:02:02 AM 38.8133 -77.4430 194° South 253 291 6,400 2,903 Climbing FlightAware ADS-B (KDAA)
Thu 11:02:18 AM 38.7955 -77.4484 194° South 265 305 7,100 3,097 Climbing FlightAware ADS-B (KDAA)
Thu 11:02:33 AM 38.7776 -77.4538 194° South 261 300 8,000 3,724 Climbing FlightAware ADS-B (KDAA)
Thu 11:02:47 AM 38.7599 -77.4591 194° South 260 299 8,900 3,724 Climbing FlightAware ADS-B (KDAA)
Thu 11:03:02 AM 38.7425 -77.4642 194° South 265 305 9,800 3,733 Climbing FlightAware ADS-B (KDAA)
Thu 11:03:32 AM 38.7060 -77.4750 193° South 271 312 11,700 3,344 Climbing FlightAware ADS-B (KDAA)
Thu 11:04:03 AM 38.6681 -77.4863 194° South 281 323 13,200 2,800 Climbing FlightAware ADS-B (KDAA)
Thu 11:04:32 AM 38.6291 -77.4979 194° South 302 348 14,500 2,034 Climbing FlightAware ADS-B (KDAA)
Thu 11:05:02 AM 38.5869 -77.5103 193° South 323 372 15,200 2,100 Climbing FlightAware ADS-B (KDAA)
Thu 11:05:32 AM 38.5428 -77.5233 194° South 319 367 16,600 2,900 Climbing FlightAware ADS-B (KDAA)
Thu 11:06:02 AM 38.5016 -77.5355 194° South 318 366 18,100 2,800 Climbing FlightAware ADS-B (KDAA)
Thu 11:06:32 AM 38.4579 -77.5484 194° South 319 367 19,400 2,727 Climbing FlightAware ADS-B (KDAA)
Thu 11:06:57 AM 38.4227 -77.5588 196° South 319 367 20,600 2,850 Climbing FlightAware ADS-B (KDAA)
Thu 11:07:12 AM 38.4007 -77.5705 212° Southwest 314 361 21,300 2,824 Climbing FlightAware ADS-B (KDAA)
Thu 11:07:31 AM 38.3812 -77.5924 229° Southwest 308 354 22,200 2,875 Climbing FlightAware ADS-B (KDAA)
Thu 11:08:00 AM 38.3536 -77.6339 231° Southwest 309 356 23,600 2,380 Climbing FlightAware ADS-B (KDAA)
Thu 11:09:32 AM 38.2689 -77.7639 231° Southwest 337 388 27,000 1,805 Climbing FlightAware ADS-B (KDAA)
Thu 11:09:53 AM 38.2470 -77.7974 231° Southwest 358 412 27,000  Level FlightAware ADS-B (KDAA)
Thu 11:10:32 AM 38.2213 -77.8366 231° Southwest 367 422 27,000  Level FlightAware ADS-B (KDAA)
Thu 11:10:42 AM 38.1978 -77.8725 231° Southwest 372 428 27,000  Level FlightAware ADS-B (KDAA)
Thu 11:11:21 AM 38.1707 -77.9138 231° Southwest 372 428 27,000  Level FlightAware ADS-B (KDAA)
Thu 11:11:45 AM 38.1297 -77.9762 231° Southwest 372 428 27,000  Level FlightAware ADS-B (KDAA)
Thu 11:12:55 AM 38.0492 -78.0994 215° Southwest 378 435 27,000  Level Washington Center
Thu 11:14:56 AM 37.8994 -78.2628 218° Southwest 372 428 27,000 101 Level Washington Center
Thu 11:15:54 AM 37.8186 -78.3414 218° Southwest 377 434 27,300 905 Climbing Washington Center
Thu 11:17:55 AM 37.6392 -78.5108 217° Southwest 383 441 29,700 1,451 Climbing Washington Center
Thu 11:18:00 AM 37.6796 -78.4596 215° Southwest  Level FlightAware Approximate
Thu 11:18:56 AM 37.5581 -78.5861 216° Southwest 383 441 31,700  Level Washington Center
Thu 11:19:54 AM 37.4728 -78.6667 217° Southwest 378 435 32,000 559 Climbing Washington Center
Thu 11:20:54 AM 37.3892 -78.7469 217° Southwest 378 435 32,800 600 Climbing Washington Center
Thu 11:22:54 AM 37.2289 -78.8942 216° Southwest 378 435 33,800 700 Climbing Washington Center
Thu 11:23:54 AM 37.1433 -78.9714 216° Southwest 378 435 34,900 1,091 Climbing Washington Center
Thu 11:24:55 AM 37.0639 -79.0458 217° Southwest 373 429 36,000 541 Climbing Washington Center
Thu 11:25:56 AM 36.9825 -79.1203 216° Southwest 373 429 36,000 34 Level Washington Center
Thu 11:27:54 AM 36.8064 -79.2833 217° Southwest 373 429 36,100 400 Climbing Washington Center
Thu 11:28:56 AM 36.7228 -79.3597 216° Southwest 373 429 37,200 934 Climbing Washington Center
Thu 11:29:56 AM 36.6408 -79.4411 219° Southwest 378 435 38,000 625 Climbing Washington Center
Thu 11:32:08 AM 36.4536 -79.6044 217° Southwest 378 435 39,200 688 Climbing Atlanta Center
Thu 11:33:08 AM 36.3808 -79.6678 215° Southwest 357 411 40,200 1,100 Climbing Atlanta Center
Thu 11:34:00 AM 36.3509 -79.6861 217° Southwest  Level FlightAware Approximate
Thu 11:34:08 AM 36.2939 -79.7472 216° Southwest 357 411 41,400  Level Atlanta Center
Thu 11:36:08 AM 36.1361 -79.8892 216° Southwest 357 411 43,000 800 Climbing Atlanta Center
Thu 11:37:08 AM 36.0614 -79.9572 216° Southwest 352 405 43,800 650 Climbing Atlanta Center
Thu 11:38:08 AM 35.9939 -80.0017 208° Southwest 357 411 44,300 400 Climbing Atlanta Center
Thu 11:40:08 AM 35.8031 -80.0931 201° Southwest 350 403 45,000 175 Climbing Atlanta Center
Thu 11:42:08 AM 35.6081 -80.1944 203° Southwest 362 417 45,000  Level Atlanta Center
Thu 11:43:08 AM 35.5136 -80.2422 202° Southwest 367 422 45,000  Level Atlanta Center
Thu 11:44:08 AM 35.4211 -80.2897 203° Southwest 367 422 45,000  Level Atlanta Center
Thu 11:45:08 AM 35.3267 -80.3375 202° Southwest 360 414 45,000  Level Atlanta Center
Thu 11:47:00 AM 35.1566 -80.4186 201° Southwest  Level FlightAware Approximate
Thu 11:48:15 AM 35.0461 -80.4736 201° Southwest 364 419 45,000  Level Jacksonville Center
Thu 11:49:15 AM 34.9492 -80.5272 204° Southwest 371 427 45,000  Level Jacksonville Center
Thu 11:55:52 AM 34.3278 -80.8269 202° Southwest 355 409 45,000  Level FlightAware ADS-B (EFHN)
Thu 11:56:42 AM 34.2517 -80.8637 202° Southwest 355 409 45,000  Level FlightAware ADS-B (EFHN)
Thu 11:57:23 AM 34.1897 -80.8938 202° Southwest 355 409 45,000  Level FlightAware ADS-B (EFHN)
Thu 11:58:11 AM 34.1171 -80.9288 202° Southwest 355 409 45,000  Level FlightAware ADS-B (EFHN)
Thu 11:58:43 AM 34.0683 -80.9523 202° Southwest 355 409 45,000  Level FlightAware ADS-B (EFHN)
Thu 11:59:20 AM 34.0116 -80.9793 202° Southwest 355 409 45,000  Level FlightAware ADS-B (EFHN)
Thu 12:00:15 PM 33.9433 -81.0150 202° Southwest 350 403 45,000  Level Jacksonville Center
Thu 12:01:15 PM 33.8522 -81.0544 200° South 350 403 45,000  Level Jacksonville Center
Thu 12:02:15 PM 33.7611 -81.1014 203° Southwest 355 409 45,000  Level Jacksonville Center
Thu 12:03:15 PM 33.6678 -81.1506 204° Southwest 355 409 45,000  Level Jacksonville Center
Thu 12:04:15 PM 33.5767 -81.1972 203° Southwest 355 409 45,000  Level Jacksonville Center
Thu 12:05:15 PM 33.4833 -81.2414 202° Southwest 355 409 45,000  Level Jacksonville Center
Thu 12:06:15 PM 33.3922 -81.2856 202° Southwest 355 409 45,000  Level Jacksonville Center
Thu 12:07:15 PM 33.2989 -81.3319 203° Southwest 355 409 45,000  Level Jacksonville Center
Thu 12:08:15 PM 33.2075 -81.3781 203° Southwest 360 414 45,000  Level Jacksonville Center
Thu 12:09:15 PM 33.1142 -81.4219 201° Southwest 360 414 45,000  Level Jacksonville Center
Thu 12:10:15 PM 33.0228 -81.4656 202° Southwest 360 414 45,000  Level Jacksonville Center
Thu 12:11:15 PM 32.9314 -81.5117 203° Southwest 360 414 45,000  Level Jacksonville Center
Thu 12:12:15 PM 32.8400 -81.5550 202° Southwest 360 414 45,000  Level Jacksonville Center
Thu 12:13:15 PM 32.7358 -81.5811 192° South 360 414 45,000  Level Jacksonville Center
Thu 12:14:15 PM 32.6403 -81.6047 192° South 365 420 45,000  Level Jacksonville Center
Thu 12:15:15 PM 32.5278 -81.6311 191° South 370 426 45,000  Level Jacksonville Center
Thu 12:16:15 PM 32.4297 -81.6544 191° South 376 433 45,000  Level Jacksonville Center
Thu 12:17:15 PM 32.3381 -81.6756 191° South 370 426 45,000  Level Jacksonville Center
Thu 12:18:15 PM 32.2256 -81.7039 192° South 370 426 45,000  Level Jacksonville Center
Thu 12:20:15 PM 32.0236 -81.7483 191° South 370 426 45,000  Level Jacksonville Center
Thu 12:21:15 PM 31.9236 -81.7714 191° South 370 426 45,000  Level Jacksonville Center
Thu 12:22:15 PM 31.8339 -81.7922 191° South 370 426 45,000  Level Jacksonville Center
Thu 12:23:15 PM 31.7236 -81.8178 191° South 370 426 45,000  Level Jacksonville Center
Thu 12:26:15 PM 31.4256 -81.8847 191° South 371 427 45,000  Level Jacksonville Center
Thu 12:27:15 PM 31.3275 -81.9100 192° South 371 427 45,000  Level Jacksonville Center
Thu 12:28:15 PM 31.2275 -81.9306 190° South 378 435 45,000 -400 Level Jacksonville Center
Thu 12:29:15 PM 31.1253 -81.9558 192° South 370 426 44,200 -850 Descending Jacksonville Center
Thu 12:30:15 PM 31.0253 -81.9761 190° South 370 426 43,300 -1,000 Descending Jacksonville Center
Thu 12:31:15 PM 30.9231 -81.9989 191° South 370 426 42,200 -1,100 Descending Jacksonville Center
Thu 12:32:15 PM 30.8231 -82.0217 191° South 370 426 41,100 -376 Descending Jacksonville Center
Thu 12:37:54 PM 30.2511 -82.1486 191° South 367 422 39,700 -460 Descending FlightAware ADS-B
Thu 12:38:33 PM 30.1898 -82.1622 191° South 352 405 38,200 -2,261 Descending FlightAware ADS-B
Thu 12:39:03 PM 30.1393 -82.1736 191° South 346 398 37,100 -2,261 Descending FlightAware ADS-B
Thu 12:39:42 PM 30.0848 -82.1857 191° South 353 406 35,600 -2,261 Descending FlightAware ADS-B
Thu 12:40:12 PM 30.0282 -82.1983 191° South 361 415 34,500 -2,123 Descending FlightAware ADS-B
Thu 12:40:47 PM 29.9714 -82.2110 191° South 363 418 33,300 -2,211 Descending FlightAware ADS-B
Thu 12:41:28 PM 29.9047 -82.2257 191° South 361 415 31,700 -2,270 Descending FlightAware ADS-B
Thu 12:42:01 PM 29.8498 -82.2378 191° South 361 415 30,500 -2,211 Descending FlightAware ADS-B
Thu 12:43:03 PM 29.7464 -82.2608 191° South 373 429 28,200 -2,182 Descending FlightAware ADS-B
Thu 12:43:40 PM 29.6831 -82.2694 179° South 388 447 26,900 -1,859 Descending FlightAware ADS-B
Thu 12:44:14 PM 29.6227 -82.2618 173° South 391 450 26,000 -1,360 Descending FlightAware ADS-B
Thu 12:44:55 PM 29.5543 -82.2514 172° South 394 453 25,200 -1,156 Descending FlightAware ADS-B
Thu 12:46:03 PM 29.4236 -82.2315 172° South 391 450 23,900 -1,091 Descending FlightAware ADS-B
Thu 12:46:56 PM 29.3336 -82.2178 172° South 387 445 23,000 -1,113 Descending FlightAware ADS-B
Thu 12:47:40 PM 29.2521 -82.2053 172° South 384 442 22,100 -1,459 Descending FlightAware ADS-B
Thu 12:48:10 PM 29.1995 -82.1973 172° South 364 419 21,200 -1,770 Descending FlightAware ADS-B
Thu 12:48:41 PM 29.1495 -82.1896 172° South 351 404 20,300 -1,692 Descending FlightAware ADS-B
Thu 12:50:07 PM 29.0356 -82.1726 172° South 342 394 17,900 -1,701 Descending FlightAware ADS-B
Thu 12:50:48 PM 28.9500 -82.1594 172° South 338 389 16,700 -1,800 Descending FlightAware ADS-B
Thu 12:51:27 PM 28.8945 -82.1508 172° South 333 383 15,500 -1,826 Descending FlightAware ADS-B
Thu 12:51:57 PM 28.8433 -82.1431 172° South 323 372 14,600 -1,594 Descending FlightAware ADS-B
Thu 12:52:31 PM 28.8021 -82.1368 172° South 321 369 13,800 -1,056 Descending FlightAware ADS-B
Thu 12:53:45 PM 28.6838 -82.1187 172° South 319 367 12,700 -508 Descending FlightAware ADS-B
Thu 12:54:41 PM 28.6016 -82.1064 173° South 320 368 12,700 -425 Level FlightAware ADS-B
Thu 12:55:38 PM 28.5326 -82.0960 172° South 317 365 11,900 -690 Descending FlightAware ADS-B
Thu 12:56:08 PM 28.4773 -82.0876 172° South 314 361 11,700 -169 Descending FlightAware ADS-B
Thu 12:56:49 PM 28.4152 -82.0782 173° South 316 364 11,700  Level FlightAware ADS-B
Thu 12:57:44 PM 28.3337 -82.0660 172° South 321 369 11,700  Level FlightAware ADS-B
Thu 12:58:14 PM 28.2900 -82.0594 173° South 321 369 11,700  Level FlightAware ADS-B
Thu 12:58:43 PM 28.2480 -82.0576 198° South 313 360 11,700  Level FlightAware ADS-B
Thu 12:59:22 PM 28.1966 -82.0756 198° South 312 359 11,700 -417 Level FlightAware ADS-B
Thu 12:59:55 PM 28.1481 -82.0935 198° South 314 361 11,200 -950 Descending FlightAware ADS-B
Thu 01:01:03 PM 28.0607 -82.1257 198° South 309 356 10,100 -989 Descending FlightAware ADS-B
Thu 01:01:26 PM 28.0253 -82.1394 201° Southwest 308 354 9,700 -511 Descending FlightAware ADS-B
Thu 01:01:50 PM 27.9921 -82.1535 201° Southwest 308 354 9,700  Level FlightAware ADS-B
Thu 01:02:19 PM 27.9539 -82.1697 200° South 307 353 9,700  Level FlightAware ADS-B
Thu 01:02:34 PM 27.9323 -82.1787 201° Southwest 308 354 9,700  Level FlightAware ADS-B
Thu 01:03:34 PM 27.8593 -82.2094 200° South 306 352 9,700  Level FlightAware ADS-B
Thu 01:04:35 PM 27.7754 -82.2447 201° Southwest 305 351 9,700 97 Level FlightAware ADS-B
Thu 01:05:38 PM 27.6967 -82.2781 201° Southwest 307 353 9,900 122 Climbing Miami Center
Thu 01:06:13 PM 27.6500 -82.3000 203° Southwest 304 350 9,900 -889 Level Tampa TRACON
Thu 01:07:26 PM 27.5667 -82.3333 200° South 270 311 8,300 -1,240 Descending Tampa TRACON
Thu 01:08:14 PM 27.5000 -82.3667 204° Southwest 268 308 7,400 -1,111 Descending Tampa TRACON
Thu 01:09:14 PM 27.4333 -82.3833 193° South 272 313 6,300 -1,100 Descending Tampa TRACON
Thu 01:10:14 PM 27.3667 -82.4167 204° Southwest 259 298 5,200 -1,150 Descending Tampa TRACON
Thu 01:11:14 PM 27.3000 -82.4333 193° South 215 247 4,000 -525 Descending Tampa TRACON
Thu 01:12:54 PM 27.2272 -82.4747 207° Southwest 209 241 3,800 -515 Descending Miami Center
Thu 01:13:57 PM 27.1739 -82.4958 199° South 186 214 2,600 -1,008 Descending Miami Center
Thu 01:14:59 PM 27.1339 -82.5075 195° South 163 188 1,700 -726 Descending Miami Center
Thu 01:16:01 PM 27.1106 -82.4864 141° Southeast 125 144 1,100 -629 Descending Miami Center
Thu 01:17:03 PM 27.0892 -82.4617 134° Southeast 114 131 400 -677 Descending Miami Center

Login

Don't have an account? Register now (free) for customized features, flight alerts, and more!